Time;durP1;ratioP1;P1;durP2;ratioP2;P2;SDS_P1;SDS_P2;PMS_P1;PMS_P2;Temp;Humidity;BMP_temperature;BMP_pressure;BME280_temperature;BME280_humidity;BME280_pressure;Samples;Min_cycle;Max_cycle;Signal;HPM_P1;HPM_P2
2021/11/15 00:02:09;;;;;;;12.88;7.35;;;;;;;19.77;48.42;102916.94;5060710;28;20021;-67
2021/11/15 00:04:37;;;;;;;12.50;7.13;;;;;;;19.62;48.59;102916.41;5059195;28;20036;-67
2021/11/15 00:07:03;;;;;;;13.07;7.57;;;;;;;19.63;48.90;102915.44;5062799;28;20174;-67
2021/11/15 00:09:28;;;;;;;12.70;7.10;;;;;;;19.64;48.85;102908.34;5060785;28;20052;-67
2021/11/15 00:11:54;;;;;;;11.82;6.93;;;;;;;19.65;48.83;102908.22;5059703;28;20033;-67
2021/11/15 00:14:20;;;;;;;12.48;7.00;;;;;;;19.58;49.00;102912.34;5051149;28;20513;-67
2021/11/15 00:16:46;;;;;;;13.10;7.22;;;;;;;19.59;48.90;102911.38;5058686;28;20683;-67
2021/11/15 00:19:12;;;;;;;13.23;7.50;;;;;;;19.65;48.77;102902.91;5059867;28;20024;-67
2021/11/15 00:21:37;;;;;;;12.45;7.00;;;;;;;19.47;48.88;102876.19;5057800;28;20828;-67
2021/11/15 00:24:04;;;;;;;14.30;7.70;;;;;;;19.58;48.97;102907.06;5061234;28;20063;-67
2021/11/15 00:26:31;;;;;;;14.18;8.30;;;;;;;19.48;49.06;102895.53;5062719;28;20025;-67
2021/11/15 00:28:57;;;;;;;12.32;7.35;;;;;;;19.55;48.95;102899.34;5062713;28;20070;-68
2021/11/15 00:31:24;;;;;;;12.65;7.30;;;;;;;19.41;49.28;102905.78;5061982;28;20509;-67
2021/11/15 00:33:51;;;;;;;11.52;7.38;;;;;;;19.47;49.25;102901.78;5063247;28;20078;-67
2021/11/15 00:36:17;;;;;;;13.05;7.63;;;;;;;19.40;49.47;102905.91;5061840;28;20385;-67
2021/11/15 00:38:43;;;;;;;13.07;7.72;;;;;;;19.34;49.40;102907.22;5059983;28;20052;-67
2021/11/15 00:41:09;;;;;;;14.93;8.13;;;;;;;19.37;49.39;102903.50;5063525;28;20534;-67
2021/11/15 00:43:35;;;;;;;14.50;7.45;;;;;;;19.35;49.40;102908.06;5062078;28;20123;-67
2021/11/15 00:46:01;;;;;;;13.85;7.68;;;;;;;19.40;49.34;102908.53;5062188;28;20052;-67
2021/11/15 00:48:28;;;;;;;15.02;7.85;;;;;;;19.43;49.18;102898.56;5063019;28;20119;-67
2021/11/15 00:50:53;;;;;;;14.75;8.13;;;;;;;19.31;49.51;102904.84;5062882;28;20032;-67
2021/11/15 00:53:19;;;;;;;13.77;8.07;;;;;;;19.29;49.46;102912.06;5060803;28;20760;-67
2021/11/15 00:55:45;;;;;;;13.10;7.30;;;;;;;19.27;49.43;102900.78;5058529;28;20486;-67
2021/11/15 00:58:11;;;;;;;12.18;7.28;;;;;;;19.32;49.41;102912.63;5059939;28;20502;-68
2021/11/15 01:00:37;;;;;;;12.77;7.70;;;;;;;19.19;49.60;102898.75;5062031;28;20131;-67
2021/11/15 01:03:07;;;;;;;14.48;8.57;;;;;;;19.22;49.51;102910.91;5063506;28;20144;-67
2021/11/15 01:05:34;;;;;;;13.37;7.77;;;;;;;19.31;49.36;102908.31;5064022;28;20028;-67
2021/11/15 01:08:00;;;;;;;13.40;7.32;;;;;;;19.15;49.70;102891.22;5052236;28;20541;-67
2021/11/15 01:10:26;;;;;;;15.05;7.75;;;;;;;19.20;49.57;102908.34;5057393;28;20604;-67
2021/11/15 01:12:52;;;;;;;14.50;8.27;;;;;;;19.22;49.56;102910.91;5057768;28;20121;-68
2021/11/15 01:15:21;;;;;;;16.88;8.43;;;;;;;19.16;49.84;102919.28;5052241;28;20035;-67
2021/11/15 01:17:48;;;;;;;15.07;8.30;;;;;;;19.14;49.74;102924.72;5055158;28;20123;-67
2021/11/15 01:20:18;;;;;;;17.38;8.82;;;;;;;19.11;49.84;102922.31;5058099;28;20047;-67
2021/11/15 01:22:43;;;;;;;14.25;8.70;;;;;;;19.14;49.69;102921.22;5061160;28;20043;-68
2021/11/15 01:25:10;;;;;;;15.15;8.23;;;;;;;19.17;49.78;102923.63;5061851;28;20044;-67
2021/11/15 01:27:37;;;;;;;18.30;9.25;;;;;;;19.11;49.94;102914.41;5043423;28;20044;-68
2021/11/15 01:30:10;;;;;;;14.18;7.95;;;;;;;19.05;49.80;102914.91;5061404;28;20106;-66
2021/11/15 01:32:37;;;;;;;15.98;8.77;;;;;;;19.05;49.94;102925.47;5059560;28;20032;-67
2021/11/15 01:35:04;;;;;;;15.00;8.82;;;;;;;19.06;49.86;102924.50;5052968;28;20048;-66
2021/11/15 01:37:30;;;;;;;14.38;8.43;;;;;;;18.99;50.24;102932.06;5052184;28;20395;-67
2021/11/15 01:39:56;;;;;;;15.90;7.97;;;;;;;19.09;49.79;102921.59;5053653;28;20044;-66
2021/11/15 01:42:22;;;;;;;14.13;7.93;;;;;;;19.14;49.80;102922.06;5058521;28;20399;-66
2021/11/15 01:44:48;;;;;;;17.40;8.25;;;;;;;19.10;49.84;102919.81;5053538;28;20039;-68
2021/11/15 01:47:14;;;;;;;14.55;8.05;;;;;;;19.04;50.03;102920.31;5056214;28;20040;-67
2021/11/15 01:49:39;;;;;;;16.25;8.10;;;;;;;19.00;50.12;102919.69;5056775;28;20261;-67
2021/11/15 01:52:06;;;;;;;15.30;7.97;;;;;;;18.97;50.07;102920.78;5059666;28;20037;-67
2021/11/15 01:54:31;;;;;;;15.73;8.27;;;;;;;18.99;50.10;102918.03;5059645;28;20067;-67
2021/11/15 01:56:57;;;;;;;15.00;8.23;;;;;;;19.06;49.79;102913.09;5060746;28;20037;-67
2021/11/15 01:59:23;;;;;;;16.73;8.73;;;;;;;18.93;50.17;102915.88;5060088;28;20047;-67
2021/11/15 02:01:49;;;;;;;15.18;8.25;;;;;;;18.98;50.07;102911.06;5058005;28;20047;-67
2021/11/15 02:04:14;;;;;;;15.63;8.27;;;;;;;18.96;49.96;102898.00;5054610;28;20181;-68
2021/11/15 02:06:41;;;;;;;16.55;8.52;;;;;;;18.94;50.08;102909.63;5049895;28;20066;-67
2021/11/15 02:09:07;;;;;;;14.93;8.32;;;;;;;18.99;50.06;102902.19;5054787;28;20070;-68
2021/11/15 02:11:34;;;;;;;14.10;8.38;;;;;;;18.95;50.16;102898.94;5051669;28;20068;-67
2021/11/15 02:14:02;;;;;;;16.05;8.60;;;;;;;18.90;50.20;102895.00;5058273;28;20430;-67
2021/11/15 02:16:28;;;;;;;12.65;7.30;;;;;;;18.84;50.28;102901.59;5055922;28;20410;-67
2021/11/15 02:18:54;;;;;;;15.30;8.05;;;;;;;18.94;50.01;102896.44;5057207;28;20048;-67
2021/11/15 02:21:20;;;;;;;15.95;8.63;;;;;;;18.84;50.27;102896.31;5059097;28;20123;-67
2021/11/15 02:23:46;;;;;;;14.68;8.38;;;;;;;18.93;50.16;102889.47;5059472;28;20375;-67
2021/11/15 02:26:15;;;;;;;15.88;8.10;;;;;;;18.86;50.14;102888.31;5060835;28;20828;-67
2021/11/15 02:28:44;;;;;;;13.13;7.75;;;;;;;18.86;50.10;102891.78;5059171;28;20047;-67
2021/11/15 02:31:13;;;;;;;15.23;8.15;;;;;;;18.83;50.17;102885.91;5054659;28;20036;-66
2021/11/15 02:33:39;;;;;;;14.90;8.13;;;;;;;18.82;50.36;102878.94;5055768;28;20040;-67
2021/11/15 02:36:07;;;;;;;18.05;9.63;;;;;;;18.87;50.22;102872.34;5057191;28;20036;-67
2021/11/15 02:38:33;;;;;;;15.10;8.50;;;;;;;18.84;50.09;102869.94;5057294;28;20576;-67
2021/11/15 02:41:00;;;;;;;15.43;8.75;;;;;;;18.80;50.29;102873.78;5054277;28;20143;-67
2021/11/15 02:43:26;;;;;;;16.33;7.72;;;;;;;18.83;50.12;102875.34;5055187;28;20055;-67
2021/11/15 02:45:52;;;;;;;16.08;8.27;;;;;;;18.82;50.26;102874.50;5053087;28;20025;-68
2021/11/15 02:48:19;;;;;;;16.30;8.57;;;;;;;18.81;50.22;102880.75;5057416;28;20078;-68
2021/11/15 02:50:46;;;;;;;13.95;7.75;;;;;;;18.75;50.29;102870.69;5056977;28;20040;-68
2021/11/15 02:53:12;;;;;;;16.85;8.13;;;;;;;18.82;50.21;102871.03;5059726;28;20043;-67
2021/11/15 02:55:37;;;;;;;15.25;8.23;;;;;;;18.79;50.23;102872.09;5062051;28;20041;-68
2021/11/15 02:58:06;;;;;;;14.70;8.18;;;;;;;18.80;50.32;102867.66;5061918;28;20033;-67
2021/11/15 03:00:37;;;;;;;16.20;8.55;;;;;;;18.75;50.45;102861.94;5052574;28;20562;-67
2021/11/15 03:03:02;;;;;;;15.23;8.35;;;;;;;18.76;50.35;102861.81;5041691;28;20045;-67
2021/11/15 03:05:31;;;;;;;15.20;8.48;;;;;;;18.77;50.23;102852.94;5054116;28;20036;-67
2021/11/15 03:07:59;;;;;;;17.52;8.40;;;;;;;18.64;50.36;102844.31;5056445;28;20044;-66
2021/11/15 03:10:25;;;;;;;15.30;8.15;;;;;;;18.72;50.31;102855.09;5053246;28;20055;-67
2021/11/15 03:12:52;;;;;;;17.00;8.45;;;;;;;18.75;50.36;102856.66;5053944;28;20040;-67
2021/11/15 03:15:29;;;;;;;16.45;9.25;;;;;;;18.77;50.26;102862.66;5057699;28;20544;-69
2021/11/15 03:17:58;;;;;;;13.43;7.97;;;;;;;18.73;50.43;102862.06;5058240;28;20047;-68
2021/11/15 03:20:26;;;;;;;14.07;7.78;;;;;;;18.82;50.17;102865.75;5056524;28;20269;-67
2021/11/15 03:22:51;;;;;;;15.40;8.85;;;;;;;18.76;50.06;102864.44;5057625;28;20071;-68
2021/11/15 03:25:22;;;;;;;15.90;8.32;;;;;;;18.68;50.33;102861.59;5058674;28;20068;-67
2021/11/15 03:27:47;;;;;;;15.30;8.23;;;;;;;18.72;50.17;102863.03;5058284;28;20128;-67
2021/11/15 03:30:14;;;;;;;17.05;8.82;;;;;;;18.65;50.54;102853.91;5056860;28;20445;-68
2021/11/15 03:32:43;;;;;;;15.10;7.90;;;;;;;18.74;50.24;102865.53;5041722;28;20643;-68
2021/11/15 03:35:10;;;;;;;16.83;8.63;;;;;;;18.67;50.45;102860.75;5054596;28;20082;-67
2021/11/15 03:37:36;;;;;;;16.10;8.80;;;;;;;18.70;50.35;102851.75;5053710;28;20059;-68
2021/11/15 03:40:02;;;;;;;15.18;8.15;;;;;;;18.65;50.35;102860.00;5054841;28;20536;-67
2021/11/15 03:42:28;;;;;;;16.33;8.70;;;;;;;18.66;50.38;102861.69;5056104;28;20059;-68
2021/11/15 03:44:53;;;;;;;15.25;8.45;;;;;;;18.64;50.52;102860.13;5058883;28;20024;-68
2021/11/15 03:47:21;;;;;;;15.75;8.13;;;;;;;18.57;50.67;102858.94;5058386;28;20498;-67
2021/11/15 03:49:47;;;;;;;14.38;8.27;;;;;;;18.51;50.76;102857.63;5058938;28;20036;-68
2021/11/15 03:52:13;;;;;;;14.45;8.27;;;;;;;18.56;50.65;102854.63;5059175;28;20032;-68
2021/11/15 03:54:38;;;;;;;16.52;8.48;;;;;;;18.60;50.43;102864.78;5035614;28;20044;-69
2021/11/15 03:57:04;;;;;;;13.98;8.00;;;;;;;18.58;50.54;102850.88;5059050;28;20040;-67
2021/11/15 03:59:29;;;;;;;15.52;8.85;;;;;;;18.62;50.54;102862.88;5060456;28;20060;-67
2021/11/15 04:01:55;;;;;;;16.83;9.20;;;;;;;18.64;50.37;102863.63;5057804;28;20044;-68
2021/11/15 04:04:27;;;;;;;16.30;7.82;;;;;;;18.62;50.35;102862.03;5061902;28;20391;-67
2021/11/15 04:06:53;;;;;;;17.17;8.68;;;;;;;18.55;50.55;102859.06;5059214;28;20048;-68
2021/11/15 04:09:19;;;;;;;16.40;8.02;;;;;;;18.49;50.56;102854.28;5060072;28;20036;-67
2021/11/15 04:11:45;;;;;;;15.18;8.32;;;;;;;18.56;50.33;102871.28;5063919;28;20098;-67
2021/11/15 04:14:13;;;;;;;18.40;8.15;;;;;;;18.51;50.50;102865.53;5062851;28;20098;-67
2021/11/15 04:16:41;;;;;;;13.95;8.77;;;;;;;18.53;50.57;102862.78;5064293;28;20687;-67
2021/11/15 04:19:11;;;;;;;14.45;8.38;;;;;;;18.57;50.55;102853.66;5061808;28;20032;-68
2021/11/15 04:21:37;;;;;;;16.55;8.70;;;;;;;18.55;50.49;102869.59;5063936;28;20036;-67
2021/11/15 04:24:05;;;;;;;16.48;8.60;;;;;;;18.47;50.43;102852.69;5061743;28;20139;-67
2021/11/15 04:26:31;;;;;;;16.30;7.63;;;;;;;18.46;50.58;102859.78;5058071;28;20543;-67
2021/11/15 04:28:57;;;;;;;14.98;8.27;;;;;;;18.45;50.65;102854.63;5053274;28;20735;-67
2021/11/15 04:31:23;;;;;;;14.25;7.78;;;;;;;18.50;50.60;102869.16;5054145;28;20045;-67
2021/11/15 04:33:49;;;;;;;16.70;8.50;;;;;;;18.49;50.54;102862.19;5053632;28;20420;-68
2021/11/15 04:36:14;;;;;;;16.00;8.25;;;;;;;18.54;50.31;102865.28;5059684;28;20045;-68
2021/11/15 04:38:40;;;;;;;17.55;8.73;;;;;;;18.64;50.25;102865.41;5058971;28;20113;-68
2021/11/15 04:41:06;;;;;;;17.20;7.97;;;;;;;18.65;50.16;102867.09;5056016;28;20033;-67
2021/11/15 04:43:32;;;;;;;16.60;8.90;;;;;;;18.73;49.80;102871.78;5058720;28;20044;-67
2021/11/15 04:45:57;;;;;;;17.40;7.72;;;;;;;18.79;49.77;102874.75;5058539;28;20062;-67
2021/11/15 04:48:25;;;;;;;18.88;8.07;;;;;;;18.95;49.23;102856.72;5062693;28;20409;-68
2021/11/15 04:50:50;;;;;;;15.55;8.52;;;;;;;19.19;48.74;102872.34;5060898;28;20418;-68
2021/11/15 04:53:16;;;;;;;14.15;8.27;;;;;;;19.74;47.40;102866.94;5061511;28;20036;-67
2021/11/15 04:55:41;;;;;;;15.93;7.80;;;;;;;20.30;46.13;102872.66;5054831;28;20041;-67
2021/11/15 04:58:07;;;;;;;15.48;8.00;;;;;;;20.45;45.82;102875.78;5055135;28;20963;-68
2021/11/15 05:00:35;;;;;;;14.30;7.28;;;;;;;20.86;44.95;102856.25;5055425;28;20051;-67
2021/11/15 05:03:01;;;;;;;18.50;8.32;;;;;;;21.31;44.20;102874.28;5053092;28;20866;-67
2021/11/15 05:05:26;;;;;;;17.40;7.93;;;;;;;21.87;43.34;102870.84;5054221;28;20036;-67
2021/11/15 05:07:56;;;;;;;15.63;7.43;;;;;;;22.09;42.73;102867.88;5056358;28;20401;-68
2021/11/15 05:10:24;;;;;;;11.38;6.60;;;;;;;22.44;42.45;102858.34;5059952;28;20056;-68
2021/11/15 05:12:50;;;;;;;14.15;7.55;;;;;;;;;;5058574;28;20525;-67
2021/11/15 05:15:20;;;;;;;15.63;7.43;;;;;;;22.92;41.29;102866.88;5060442;28;20029;-68
2021/11/15 05:17:47;;;;;;;14.30;7.35;;;;;;;23.05;40.90;102855.03;5059846;28;20040;-68
2021/11/15 05:20:14;;;;;;;14.10;7.35;;;;;;;23.04;41.07;102861.34;5058488;28;20047;-67
2021/11/15 05:22:40;;;;;;;12.73;6.80;;;;;;;22.99;41.24;102864.47;5059732;28;20051;-68
2021/11/15 05:25:08;;;;;;;15.52;7.93;;;;;;;22.73;41.91;102866.97;5052552;28;20033;-68
2021/11/15 05:27:35;;;;;;;13.38;6.82;;;;;;;22.49;42.44;102856.09;5053330;28;20182;-68
2021/11/15 05:30:00;;;;;;;13.15;7.22;;;;;;;22.25;42.71;102870.72;5056165;28;20043;-68
2021/11/15 05:32:26;;;;;;;12.80;7.70;;;;;;;22.10;43.02;102869.56;5056360;28;20040;-68
2021/11/15 05:34:52;;;;;;;12.63;6.70;;;;;;;21.97;43.57;102877.81;5055035;28;20072;-68
2021/11/15 05:37:18;;;;;;;14.15;6.82;;;;;;;21.80;43.78;102870.59;5056010;28;20052;-68
2021/11/15 05:39:44;;;;;;;14.88;7.20;;;;;;;21.78;44.22;102869.06;5056368;28;20049;-68
2021/11/15 05:42:11;;;;;;;12.43;7.65;;;;;;;21.53;44.55;102871.31;5057784;28;20060;-68
2021/11/15 05:44:37;;;;;;;13.20;6.97;;;;;;;21.33;45.05;102865.22;5058077;28;20427;-68
2021/11/15 05:47:03;;;;;;;15.43;7.15;;;;;;;21.09;45.71;102868.25;5059895;28;20475;-66
2021/11/15 05:49:28;;;;;;;11.32;6.68;;;;;;;20.91;46.19;102871.72;5059709;28;20059;-68
2021/11/15 05:51:54;;;;;;;13.10;6.93;;;;;;;20.80;46.42;102877.97;5040444;28;20047;-67
2021/11/15 05:54:20;;;;;;;14.13;7.30;;;;;;;20.78;46.62;102883.41;5057591;28;20438;-67
2021/11/15 05:56:46;;;;;;;13.55;7.15;;;;;;;20.58;47.12;102886.16;5052594;28;20566;-66
2021/11/15 05:59:13;;;;;;;13.23;7.05;;;;;;;20.68;46.78;102887.03;5052335;28;20040;-67
2021/11/15 06:01:39;;;;;;;12.25;6.43;;;;;;;20.66;46.86;102884.50;5053542;28;20041;-67
2021/11/15 06:04:06;;;;;;;11.73;6.82;;;;;;;20.56;47.00;102883.63;5056725;28;20028;-67
2021/11/15 06:06:32;;;;;;;17.02;7.63;;;;;;;20.55;47.14;102884.63;5055591;28;20040;-67
2021/11/15 06:08:57;;;;;;;13.68;6.93;;;;;;;20.53;47.05;102889.22;5058447;28;20043;-67
2021/11/15 06:11:23;;;;;;;12.85;6.68;;;;;;;20.50;46.99;102885.03;5058112;28;20029;-67
2021/11/15 06:13:48;;;;;;;13.73;6.97;;;;;;;20.49;47.14;102886.00;5056269;28;20586;-67
2021/11/15 06:16:14;;;;;;;14.70;6.75;;;;;;;20.42;47.36;102887.47;5055973;28;20102;-68
2021/11/15 06:18:41;;;;;;;13.63;6.53;;;;;;;20.29;47.65;102889.50;5055891;28;20044;-68
2021/11/15 06:21:07;;;;;;;11.63;6.50;;;;;;;20.34;47.62;102894.41;5060692;28;20048;-67
2021/11/15 06:23:32;;;;;;;14.60;7.10;;;;;;;20.37;47.52;102889.69;5058701;28;20376;-67
2021/11/15 06:25:58;;;;;;;13.23;6.40;;;;;;;20.47;47.07;102890.59;5054066;28;20035;-67
2021/11/15 06:28:24;;;;;;;13.73;6.68;;;;;;;20.52;47.03;102893.66;5055408;28;20750;-67
2021/11/15 06:30:50;;;;;;;12.68;6.53;;;;;;;20.78;46.31;102901.09;5050777;28;20743;-67
2021/11/15 06:33:15;;;;;;;13.85;7.35;;;;;;;21.02;45.87;102898.09;5050481;28;20025;-67
2021/11/15 06:35:41;;;;;;;12.65;6.85;;;;;;;21.47;44.65;102897.56;5054071;28;20095;-66
2021/11/15 06:38:06;;;;;;;13.38;6.38;;;;;;;21.72;43.94;102904.94;5059290;28;20524;-66
2021/11/15 06:40:32;;;;;;;14.18;7.03;;;;;;;21.83;44.06;102899.47;5059541;28;20445;-67
2021/11/15 06:42:58;;;;;;;11.77;6.80;;;;;;;21.96;43.86;102899.16;5057836;28;20121;-67
2021/11/15 06:45:23;;;;;;;17.38;6.50;;;;;;;21.94;43.79;102904.63;5057903;28;20033;-67
2021/11/15 06:47:49;;;;;;;14.55;6.82;;;;;;;22.12;43.32;102903.91;5058896;28;20098;-67
2021/11/15 06:50:17;;;;;;;12.60;6.68;;;;;;;22.03;43.34;102914.34;5059377;28;20053;-68
2021/11/15 06:52:44;;;;;;;13.05;6.10;;;;;;;21.92;43.46;102919.00;5064467;28;20046;-67
2021/11/15 06:55:11;;;;;;;13.48;7.22;;;;;;;21.86;43.79;102924.88;5043560;28;20048;-67
2021/11/15 06:57:38;;;;;;;12.75;6.65;;;;;;;21.61;44.62;102921.00;5056574;28;20055;-67
2021/11/15 07:00:11;;;;;;;14.25;6.65;;;;;;;21.39;45.13;102916.84;5062956;28;20111;-66
2021/11/15 07:02:36;;;;;;;14.35;6.60;;;;;;;21.10;45.46;102920.25;5061852;28;20068;-67
2021/11/15 07:05:02;;;;;;;13.98;6.40;;;;;;;20.95;46.14;102918.16;5059633;28;20688;-67
2021/11/15 07:07:28;;;;;;;13.52;7.13;;;;;;;20.89;46.37;102921.34;5061560;28;20116;-67
2021/11/15 07:09:53;;;;;;;12.52;6.43;;;;;;;20.77;46.51;102918.81;5060333;28;20436;-67
2021/11/15 07:12:19;;;;;;;13.27;6.53;;;;;;;20.72;46.69;102920.19;5055023;28;20502;-66
2021/11/15 07:14:45;;;;;;;10.23;5.78;;;;;;;20.75;46.74;102919.91;5058965;28;20056;-67
2021/11/15 07:17:10;;;;;;;14.13;6.90;;;;;;;20.62;46.93;102925.44;5059188;28;20056;-66
2021/11/15 07:19:37;;;;;;;12.88;6.55;;;;;;;20.50;47.23;102921.25;5060609;28;20044;-67
2021/11/15 07:22:03;;;;;;;10.65;6.00;;;;;;;20.52;47.23;102920.13;5056403;28;20383;-66
2021/11/15 07:24:29;;;;;;;11.02;5.88;;;;;;;20.45;47.24;102915.50;5052178;28;20033;-66
2021/11/15 07:26:54;;;;;;;9.93;5.97;;;;;;;20.58;47.06;102931.16;5054312;28;20752;-68
2021/11/15 07:29:20;;;;;;;12.73;6.80;;;;;;;20.58;47.03;102926.69;5053083;28;20048;-67
2021/11/15 07:31:47;;;;;;;12.07;6.05;;;;;;;20.66;46.94;102921.56;5054914;28;20051;-67
2021/11/15 07:34:12;;;;;;;11.63;6.43;;;;;;;20.78;46.63;102919.63;5054451;28;20135;-67
2021/11/15 07:36:38;;;;;;;11.85;6.32;;;;;;;21.21;45.34;102927.25;5052103;28;21722;-67
2021/11/15 07:39:04;;;;;;;13.00;6.53;;;;;;;21.44;44.85;102914.59;5054593;28;20049;-66
2021/11/15 07:41:29;;;;;;;12.00;6.30;;;;;;;21.66;44.30;102918.75;5054486;28;20108;-67
2021/11/15 07:43:55;;;;;;;12.52;6.30;;;;;;;21.76;44.42;102916.09;5054894;28;20445;-67
2021/11/15 07:46:21;;;;;;;15.95;7.78;;;;;;;22.00;42.39;102916.47;5059108;28;20048;-65
2021/11/15 07:48:47;;;;;;;14.80;7.03;;;;;;;21.79;43.98;102913.16;5057419;28;20115;-66
2021/11/15 07:51:12;;;;;;;14.60;7.03;;;;;;;21.98;43.11;102908.66;5040133;28;20048;-66
2021/11/15 07:53:38;;;;;;;15.93;6.88;;;;;;;22.10;43.20;102909.34;5042702;28;20036;-66
2021/11/15 07:56:06;;;;;;;15.93;6.80;;;;;;;22.02;42.95;102910.03;5055113;28;20047;-67
2021/11/15 07:58:33;;;;;;;14.68;7.68;;;;;;;21.73;43.98;102903.13;5057259;28;20155;-66
2021/11/15 08:00:58;;;;;;;15.13;6.82;;;;;;;21.28;45.00;102903.72;5036903;28;20039;-66
2021/11/15 08:03:24;;;;;;;15.07;7.53;;;;;;;20.98;45.52;102904.63;5061344;28;20040;-66
2021/11/15 08:05:50;;;;;;;16.58;7.57;;;;;;;20.68;46.30;102909.03;5059087;28;20097;-66
2021/11/15 08:08:15;;;;;;;15.77;7.68;;;;;;;20.44;46.87;102906.72;5061970;28;20036;-66
2021/11/15 08:10:43;;;;;;;15.73;7.25;;;;;;;20.31;47.34;102908.75;5059723;28;20036;-65
2021/11/15 08:13:08;;;;;;;16.83;6.88;;;;;;;20.34;47.01;102912.91;5060553;28;20166;-66
2021/11/15 08:15:34;;;;;;;15.98;7.70;;;;;;;20.41;46.82;102919.38;5058622;28;20119;-67
2021/11/15 08:18:01;;;;;;;18.40;8.35;;;;;;;20.58;46.50;102916.09;5060231;28;20048;-70
2021/11/15 08:20:30;;;;;;;12.50;6.78;;;;;;;21.00;45.65;102910.63;5061039;28;20044;-67
2021/11/15 08:23:00;;;;;;;13.75;6.95;;;;;;;21.32;45.15;102905.94;5024853;28;20089;-67
2021/11/15 08:25:44;;;;;;;15.75;6.78;;;;;;;21.59;44.25;102907.91;5063864;28;20044;-67
2021/11/15 08:28:10;;;;;;;12.25;7.07;;;;;;;21.70;43.89;102907.72;5057499;28;20043;-67
2021/11/15 08:30:35;;;;;;;10.18;6.30;;;;;;;21.67;44.14;102907.19;5058211;28;20044;-67
2021/11/15 08:33:02;;;;;;;14.18;7.32;;;;;;;21.81;43.84;102901.44;5058161;28;20036;-67
2021/11/15 08:35:27;;;;;;;12.55;7.10;;;;;;;21.91;43.71;102899.59;5055634;28;20033;-67
2021/11/15 08:37:59;;;;;;;15.88;7.18;;;;;;;21.82;43.80;102900.44;5055466;28;21302;-68
2021/11/15 08:40:25;;;;;;;14.27;6.40;;;;;;;21.75;44.10;102902.00;5061897;28;20043;-67
2021/11/15 08:42:53;;;;;;;12.98;6.15;;;;;;;21.62;43.97;102897.00;5059803;28;20040;-66
2021/11/15 08:45:20;;;;;;;13.82;6.68;;;;;;;21.36;44.72;102902.06;5064111;28;20039;-66
2021/11/15 08:47:45;;;;;;;14.52;6.93;;;;;;;21.28;44.92;102896.59;5061239;28;20586;-66
2021/11/15 08:50:11;;;;;;;10.85;5.93;;;;;;;21.05;45.57;102905.78;5059644;28;20045;-67
2021/11/15 08:52:37;;;;;;;11.88;6.03;;;;;;;20.89;46.19;102906.28;5049114;28;20384;-66
2021/11/15 08:55:03;;;;;;;12.77;6.43;;;;;;;20.81;46.24;102917.56;5055243;28;20834;-67
2021/11/15 08:57:28;;;;;;;15.40;7.13;;;;;;;20.73;46.57;102913.91;5050959;28;20098;-67
2021/11/15 08:59:55;;;;;;;14.63;6.68;;;;;;;20.52;47.04;102914.84;5056689;28;20043;-67
2021/11/15 09:02:21;;;;;;;12.95;6.75;;;;;;;20.65;46.79;102927.00;5058517;28;20186;-67
2021/11/15 09:04:47;;;;;;;11.30;6.18;;;;;;;20.68;46.70;102921.44;5056992;28;20533;-67
2021/11/15 09:07:12;;;;;;;12.18;6.40;;;;;;;20.67;46.69;102912.66;5058849;28;20078;-67
2021/11/15 09:09:39;;;;;;;13.63;6.70;;;;;;;20.50;46.89;102908.00;5063111;28;20068;-67
2021/11/15 09:12:08;;;;;;;13.07;6.88;;;;;;;20.52;46.95;102914.84;5063257;28;20028;-67
2021/11/15 09:14:35;;;;;;;11.37;6.03;;;;;;;20.49;47.15;102915.09;5060347;28;20530;-68
2021/11/15 09:17:03;;;;;;;14.15;6.82;;;;;;;20.43;47.25;102918.28;5061047;28;20497;-68
2021/11/15 09:19:29;;;;;;;12.43;6.35;;;;;;;20.61;46.58;102910.53;5062359;28;20051;-67
2021/11/15 09:21:55;;;;;;;12.02;6.18;;;;;;;20.58;46.75;102912.63;5060032;28;20036;-68
2021/11/15 09:24:22;;;;;;;13.50;6.85;;;;;;;20.71;46.39;102918.53;5060949;28;20052;-67
2021/11/15 09:26:48;;;;;;;11.50;6.45;;;;;;;20.85;46.04;102918.16;5054682;28;20151;-67
2021/11/15 09:29:14;;;;;;;13.55;5.50;;;;;;;21.04;45.67;102912.88;5062074;28;20040;-67
2021/11/15 09:31:41;;;;;;;12.48;6.28;;;;;;;21.27;45.22;102907.34;5055025;28;20557;-67
2021/11/15 09:34:07;;;;;;;11.90;5.88;;;;;;;21.23;45.11;102916.53;5055525;28;20102;-67
2021/11/15 09:36:33;;;;;;;11.00;6.30;;;;;;;21.46;44.67;102907.34;5058280;28;20105;-67
2021/11/15 09:38:59;;;;;;;11.27;5.78;;;;;;;21.53;44.42;102913.75;5057633;28;20049;-67
2021/11/15 09:41:27;;;;;;;14.95;7.35;;;;;;;21.31;45.24;102909.56;5054737;28;20044;-67
2021/11/15 09:43:53;;;;;;;12.35;6.55;;;;;;;21.22;45.42;102907.72;5055508;28;20121;-69
2021/11/15 09:46:22;;;;;;;11.35;6.15;;;;;;;21.00;46.04;102919.41;5055883;28;20204;-70
2021/11/15 09:48:51;;;;;;;10.60;6.18;;;;;;;21.03;46.08;102918.31;5060777;28;20043;-69
2021/11/15 09:51:18;;;;;;;11.60;5.63;;;;;;;20.85;46.58;102910.19;5057362;28;20561;-69
2021/11/15 09:53:44;;;;;;;11.48;5.82;;;;;;;20.80;46.75;102909.75;5065059;28;20473;-69
2021/11/15 09:56:13;;;;;;;10.73;6.07;;;;;;;20.63;47.05;102900.66;5062880;28;20040;-70
2021/11/15 09:58:39;;;;;;;11.70;6.45;;;;;;;20.77;46.73;102900.28;5062065;28;20036;-70
2021/11/15 10:01:05;;;;;;;12.82;5.88;;;;;;;20.67;47.09;102898.59;5063631;28;20039;-69
2021/11/15 10:03:33;;;;;;;11.98;5.78;;;;;;;20.68;46.88;102903.75;5060010;28;20055;-69
2021/11/15 10:05:59;;;;;;;10.20;6.20;;;;;;;20.63;47.04;102898.00;5062130;28;20146;-69
2021/11/15 10:08:24;;;;;;;10.73;5.70;;;;;;;20.57;47.15;102900.34;5062325;28;20078;-69
2021/11/15 10:10:56;;;;;;;9.73;5.63;;;;;;;20.48;47.53;102889.63;5060509;28;20090;-70
2021/11/15 10:13:34;;;;;;;11.65;6.03;;;;;;;20.47;47.38;102900.34;5061571;28;20047;-69
2021/11/15 10:16:00;;;;;;;12.73;6.50;;;;;;;20.59;46.99;102906.34;5058554;28;20044;-69
2021/11/15 10:18:47;;;;;;;12.45;6.28;;;;;;;20.63;47.08;102899.81;5060820;28;20221;-70
2021/11/15 10:21:17;;;;;;;10.98;5.60;;;;;;;20.60;46.97;102906.22;5060274;28;20052;-70
2021/11/15 10:23:54;;;;;;;12.05;5.85;;;;;;;20.60;46.90;102908.84;5062995;28;20040;-69
2021/11/15 10:26:37;;;;;;;10.40;5.57;;;;;;;20.93;46.26;102899.75;5060341;28;20036;-69
2021/11/15 10:29:11;;;;;;;10.77;6.07;;;;;;;21.22;45.66;102894.50;5052518;28;20120;-69
2021/11/15 10:31:41;;;;;;;11.63;6.10;;;;;;;21.49;44.78;102893.81;5050161;28;20051;-70
2021/11/15 10:34:08;;;;;;;;;;;;;;;21.75;44.34;102887.91;5053757;28;20653;-70
2021/11/15 10:37:15;;;;;;;11.85;5.57;;;;;;;21.88;44.16;102883.13;5053003;28;19939;-69
2021/11/15 10:39:46;;;;;;;9.57;5.20;;;;;;;22.03;43.84;102881.69;5045322;28;20049;-70
2021/11/15 10:42:19;;;;;;;10.10;5.40;;;;;;;22.14;43.58;102883.38;5053132;28;20044;-69
2021/11/15 10:44:51;;;;;;;11.00;5.55;;;;;;;22.14;43.60;102880.72;5055827;28;20406;-69
2021/11/15 10:47:18;;;;;;;12.13;5.85;;;;;;;22.15;43.40;102879.72;5055802;28;20032;-69
2021/11/15 10:49:46;;;;;;;9.90;5.43;;;;;;;22.14;43.76;102889.50;5055628;28;20036;-69
2021/11/15 10:52:16;;;;;;;11.35;5.65;;;;;;;22.00;43.69;102889.94;5056401;28;20040;-69
2021/11/15 10:54:54;;;;;;;11.25;5.35;;;;;;;21.86;44.15;102885.91;5059948;28;20044;-69
2021/11/15 10:57:26;;;;;;;12.68;5.88;;;;;;;21.84;44.36;102889.69;5055037;28;20372;-69
2021/11/15 11:00:14;;;;;;;10.93;5.72;;;;;;;21.52;45.08;102882.06;5050574;28;20089;-69
2021/11/15 11:03:16;;;;;;;9.75;5.70;;;;;;;21.14;45.68;102849.28;5047802;28;20114;-69
2021/11/15 11:05:43;;;;;;;9.00;5.00;;;;;;;21.23;45.92;102877.63;5052173;28;20036;-69
2021/11/15 11:08:12;;;;;;;10.68;5.97;;;;;;;21.05;46.42;102881.94;5050056;28;20041;-68
2021/11/15 11:10:53;;;;;;;10.20;5.88;;;;;;;20.97;46.58;102873.81;5053195;28;20056;-68
2021/11/15 11:13:21;;;;;;;12.57;6.00;;;;;;;20.79;46.88;102873.66;5058313;28;20020;-69
2021/11/15 11:15:49;;;;;;;10.40;6.13;;;;;;;20.84;46.78;102867.97;5056234;28;20538;-69
2021/11/15 11:19:15;;;;;;;9.25;5.95;;;;;;;20.78;46.97;102872.81;5055172;28;20032;-68
2021/11/15 11:26:27;;;;;;;12.97;5.83;;;;;;;20.79;47.03;102863.06;5059263;28;20040;-67